createdAt,value
2022-10-04T00:00:21.420Z,0
2022-10-04T00:01:22.057Z,0
2022-10-04T00:02:22.219Z,0
2022-10-04T00:03:21.753Z,0
2022-10-04T00:04:21.399Z,0
2022-10-04T00:05:21.139Z,0
2022-10-04T00:06:21.100Z,0
2022-10-04T00:07:21.588Z,0
2022-10-04T00:08:21.058Z,0
2022-10-04T00:09:21.579Z,0
2022-10-04T00:10:21.574Z,0
2022-10-04T00:11:21.809Z,0
2022-10-04T00:12:21.588Z,0
2022-10-04T00:13:21.508Z,0
2022-10-04T00:14:21.754Z,0
2022-10-04T00:15:21.234Z,0
2022-10-04T00:16:21.834Z,0
2022-10-04T00:17:21.743Z,0
2022-10-04T00:18:21.519Z,0
2022-10-04T00:19:21.455Z,0
2022-10-04T00:20:21.167Z,0
2022-10-04T00:21:21.441Z,0
2022-10-04T00:22:21.664Z,0
2022-10-04T00:23:21.138Z,0
2022-10-04T00:24:21.629Z,0
2022-10-04T00:25:21.374Z,0
2022-10-04T00:26:21.354Z,0
2022-10-04T00:27:21.593Z,0
2022-10-04T00:28:21.473Z,0
2022-10-04T00:29:21.063Z,0
2022-10-04T00:30:21.044Z,0
2022-10-04T00:31:21.799Z,0
2022-10-04T00:32:21.024Z,0
2022-10-04T00:33:21.250Z,0
2022-10-04T00:34:21.587Z,0
2022-10-04T00:35:21.240Z,0
2022-10-04T00:36:20.970Z,0
2022-10-04T00:37:21.248Z,0
2022-10-04T00:38:21.202Z,0
2022-10-04T00:39:20.673Z,0
2022-10-04T00:40:20.670Z,0
2022-10-04T00:41:21.425Z,0
2022-10-04T00:42:20.898Z,0
2022-10-04T00:43:20.627Z,0
2022-10-04T00:44:21.149Z,0
2022-10-04T00:45:20.866Z,0
2022-10-04T00:46:21.357Z,0
2022-10-04T00:47:22.111Z,0
2022-10-04T00:48:21.589Z,0
2022-10-04T00:49:22.112Z,0
2022-10-04T00:50:22.155Z,0
2022-10-04T00:51:21.301Z,0
2022-10-04T00:52:21.288Z,0
2022-10-04T00:53:21.814Z,0
2022-10-04T00:54:21.527Z,0
2022-10-04T00:55:21.508Z,0
2022-10-04T00:56:21.750Z,0
2022-10-04T00:57:21.741Z,0
2022-10-04T00:58:21.729Z,0
2022-10-04T00:59:20.942Z,0
2022-10-04T01:00:21.452Z,0
2022-10-04T01:01:22.418Z,0
2022-10-04T01:02:21.857Z,0
2022-10-04T01:03:21.663Z,0
2022-10-04T01:04:21.394Z,0
2022-10-04T01:05:21.292Z,0
2022-10-04T01:06:22.059Z,0
2022-10-04T01:07:21.617Z,0
2022-10-04T01:08:21.604Z,0
2022-10-04T01:09:21.615Z,0
2022-10-04T01:10:21.582Z,0
2022-10-04T01:11:21.325Z,0
2022-10-04T01:12:21.566Z,0
2022-10-04T01:13:21.276Z,0
2022-10-04T01:14:21.534Z,0
2022-10-04T01:15:21.803Z,0
2022-10-04T01:16:22.237Z,0
2022-10-04T01:17:21.253Z,0
2022-10-04T01:18:21.219Z,0
2022-10-04T01:19:20.962Z,0
2022-10-04T01:20:21.448Z,0
2022-10-04T01:21:21.460Z,0
2022-10-04T01:22:21.502Z,0
2022-10-04T01:23:20.649Z,0
2022-10-04T01:24:21.417Z,0
2022-10-04T01:25:21.675Z,0
2022-10-04T01:26:20.866Z,0
2022-10-04T01:27:21.372Z,0
2022-10-04T01:28:21.836Z,0
2022-10-04T01:29:21.108Z,0
2022-10-04T01:30:20.589Z,0
2022-10-04T01:31:21.471Z,0
2022-10-04T01:32:21.043Z,0
2022-10-04T01:33:52.858Z,0
2022-10-04T01:34:21.036Z,0
2022-10-04T01:35:21.521Z,0
2022-10-04T01:36:21.005Z,0
2022-10-04T01:37:21.520Z,0
2022-10-04T01:38:21.575Z,0
2022-10-04T01:39:21.483Z,0
2022-10-04T01:40:20.432Z,0
2022-10-04T01:41:20.949Z,0
2022-10-04T01:42:20.668Z,0
2022-10-04T01:43:21.428Z,0
2022-10-04T01:44:20.640Z,0
2022-10-04T01:45:20.371Z,0
2022-10-04T01:46:21.630Z,0
2022-10-04T01:47:20.859Z,0
2022-10-04T01:48:20.599Z,0
2022-10-04T01:49:21.085Z,0
2022-10-04T01:50:24.670Z,0
2022-10-04T01:51:21.081Z,0
2022-10-04T01:52:21.314Z,0
2022-10-04T01:53:20.816Z,0
2022-10-04T01:54:21.354Z,0
2022-10-04T01:55:21.270Z,0
2022-10-04T01:56:21.264Z,0
2022-10-04T01:57:21.037Z,0
2022-10-04T01:58:20.982Z,0
2022-10-04T01:59:20.452Z,0
2022-10-04T02:00:20.698Z,0
2022-10-04T02:01:21.124Z,0
2022-10-04T02:02:20.925Z,0
2022-10-04T02:03:20.915Z,0
2022-10-04T02:04:26.820Z,0
2022-10-04T02:05:20.389Z,0
2022-10-04T02:06:20.874Z,0
2022-10-04T02:07:20.878Z,0
2022-10-04T02:08:21.112Z,0
2022-10-04T02:09:20.107Z,0
2022-10-04T02:10:20.909Z,0
2022-10-04T02:11:21.070Z,0
2022-10-04T02:12:20.546Z,0
2022-10-04T02:13:20.858Z,0
2022-10-04T02:14:20.272Z,0
2022-10-04T02:15:20.535Z,0
2022-10-04T02:16:20.825Z,0
2022-10-04T02:17:20.489Z,0
2022-10-04T02:18:20.746Z,0
2022-10-04T02:19:20.463Z,0
2022-10-04T02:20:20.705Z,0
2022-10-04T02:21:20.948Z,0
2022-10-04T02:22:20.691Z,0
2022-10-04T02:23:20.412Z,0
2022-10-04T02:24:20.654Z,0
2022-10-04T02:25:19.898Z,0
2022-10-04T02:26:20.708Z,0
2022-10-04T02:27:20.872Z,0
2022-10-04T02:28:21.207Z,0
2022-10-04T02:29:20.459Z,0
2022-10-04T02:30:20.073Z,0
2022-10-04T02:31:20.745Z,0
2022-10-04T02:32:20.560Z,0
2022-10-04T02:33:20.285Z,0
2022-10-04T02:34:20.533Z,0
2022-10-04T02:35:20.270Z,0
2022-10-04T02:36:20.504Z,0
2022-10-04T02:37:20.235Z,0
2022-10-04T02:38:19.967Z,0
2022-10-04T02:39:20.473Z,0
2022-10-04T02:40:19.691Z,0
2022-10-04T02:41:20.470Z,0
2022-10-04T02:42:20.759Z,0
2022-10-04T02:43:20.430Z,0
2022-10-04T02:44:20.407Z,0
2022-10-04T02:45:20.423Z,0
2022-10-04T02:46:20.439Z,0
2022-10-04T02:47:20.110Z,0
2022-10-04T02:48:20.363Z,0
2022-10-04T02:49:20.349Z,0
2022-10-04T02:50:19.821Z,0
2022-10-04T02:51:19.810Z,0
2022-10-04T02:52:20.308Z,0
2022-10-04T02:53:20.305Z,0
2022-10-04T02:54:20.285Z,0
2022-10-04T02:55:20.269Z,0
2022-10-04T02:56:20.008Z,0
2022-10-04T02:57:20.267Z,0
2022-10-04T02:58:20.431Z,0
2022-10-04T02:59:20.586Z,0
2022-10-04T03:00:19.808Z,0
2022-10-04T03:01:20.907Z,0
2022-10-04T03:02:30.984Z,0
2022-10-04T03:03:19.776Z,0
2022-10-04T03:04:19.514Z,0
2022-10-04T03:05:19.750Z,0
2022-10-04T03:06:20.242Z,0
2022-10-04T03:07:20.493Z,0
2022-10-04T03:08:19.707Z,0
2022-10-04T03:09:19.960Z,0
2022-10-04T03:10:19.944Z,0
2022-10-04T03:11:19.940Z,0
2022-10-04T03:12:19.910Z,0
2022-10-04T03:13:19.440Z,0
2022-10-04T03:14:20.232Z,0
2022-10-04T03:15:20.150Z,0
2022-10-04T03:16:20.859Z,0
2022-10-04T03:17:19.622Z,0
2022-10-04T03:18:19.840Z,0
2022-10-04T03:19:19.819Z,0
2022-10-04T03:20:20.090Z,0
2022-10-04T03:21:19.838Z,0
2022-10-04T03:22:19.535Z,0
2022-10-04T03:23:20.033Z,0
2022-10-04T03:24:20.023Z,0
2022-10-04T03:25:19.498Z,0
2022-10-04T03:26:19.752Z,0
2022-10-04T03:27:19.726Z,0
2022-10-04T03:28:20.457Z,0
2022-10-04T03:29:19.758Z,0
2022-10-04T03:30:20.025Z,0
2022-10-04T03:31:20.255Z,0
2022-10-04T03:32:19.412Z,0
2022-10-04T03:49:34.202Z,0
2022-10-04T03:50:33.541Z,0
2022-10-04T03:51:33.261Z,0
2022-10-04T03:52:33.238Z,0
2022-10-04T03:53:33.481Z,0
2022-10-04T03:54:33.817Z,0
2022-10-04T03:55:33.961Z,0
2022-10-04T03:56:33.950Z,0
2022-10-04T03:57:33.427Z,0
2022-10-04T03:58:33.411Z,0
2022-10-04T03:59:33.651Z,0
2022-10-04T04:00:33.634Z,0
2022-10-04T04:01:34.397Z,0
2022-10-04T04:02:33.841Z,0
2022-10-04T04:03:33.591Z,0
2022-10-04T04:04:33.081Z,0
2022-10-04T04:05:33.959Z,0
2022-10-04T04:06:33.555Z,0
2022-10-04T04:07:33.283Z,0
2022-10-04T04:08:33.270Z,0
2022-10-04T04:09:33.506Z,0
2022-10-04T04:10:33.750Z,0
2022-10-04T04:11:32.985Z,0
2022-10-04T04:12:33.469Z,0
2022-10-04T04:13:33.199Z,0
2022-10-04T04:14:32.687Z,0
2022-10-04T04:15:33.698Z,0
2022-10-04T04:16:33.700Z,0
2022-10-04T04:17:33.140Z,0
2022-10-04T04:18:32.875Z,0
2022-10-04T04:19:33.115Z,0
2022-10-04T04:20:33.109Z,0
2022-10-04T04:21:33.729Z,0
2022-10-04T04:22:32.568Z,0
2022-10-04T04:23:33.167Z,0
2022-10-04T04:24:33.079Z,0
2022-10-04T04:25:32.788Z,0
2022-10-04T04:26:33.018Z,0
2022-10-04T04:27:38.051Z,0
2022-10-04T04:28:33.154Z,0
2022-10-04T04:29:32.979Z,0
2022-10-04T04:30:32.713Z,0
2022-10-04T04:31:33.673Z,0
2022-10-04T04:32:32.977Z,0
2022-10-04T04:33:32.985Z,0
2022-10-04T04:34:32.914Z,0
2022-10-04T04:35:33.174Z,0
2022-10-04T04:36:33.141Z,0
2022-10-04T04:37:33.507Z,0
2022-10-04T04:38:32.613Z,0
2022-10-04T04:39:33.109Z,0
2022-10-04T04:40:33.346Z,0
2022-10-04T04:41:32.571Z,0
2022-10-04T04:42:32.813Z,0
2022-10-04T04:43:32.538Z,0
2022-10-04T04:44:33.039Z,0
2022-10-04T04:45:33.341Z,0
2022-10-04T04:46:37.156Z,0
2022-10-04T04:47:32.489Z,0
2022-10-04T04:48:32.988Z,0
2022-10-04T04:49:33.140Z,0
2022-10-04T04:50:32.619Z,0
2022-10-04T04:51:33.120Z,0
2022-10-04T04:52:32.843Z,0
2022-10-04T04:53:33.565Z,0
2022-10-04T04:54:32.835Z,0
2022-10-04T04:56:10.590Z,0
2022-10-04T04:56:32.543Z,0
2022-10-04T04:57:32.522Z,0
2022-10-04T04:58:32.782Z,0
2022-10-04T04:59:32.763Z,0
2022-10-04T05:00:32.752Z,0
2022-10-04T05:01:33.026Z,0
2022-10-04T05:02:33.110Z,0
2022-10-04T05:03:32.754Z,0
2022-10-04T05:04:32.691Z,0
2022-10-04T05:05:32.675Z,0
2022-10-04T05:06:32.661Z,0
2022-10-04T05:07:32.905Z,0
2022-10-04T05:08:36.080Z,0
2022-10-04T05:09:33.273Z,0
2022-10-04T05:10:32.608Z,0
2022-10-04T05:11:32.082Z,0
2022-10-04T05:12:32.585Z,0
2022-10-04T05:13:32.559Z,0
2022-10-04T05:14:32.878Z,0
2022-10-04T05:15:32.544Z,0
2022-10-04T05:16:32.898Z,0
2022-10-04T05:17:32.524Z,5
2022-10-04T05:18:33.048Z,5
2022-10-04T05:19:31.989Z,5
2022-10-04T05:20:32.729Z,5
2022-10-04T05:21:32.215Z,5
2022-10-04T05:22:32.706Z,5
2022-10-04T05:23:32.691Z,5
2022-10-04T05:24:32.967Z,5
2022-10-04T05:25:33.051Z,5
2022-10-04T05:26:32.151Z,5
2022-10-04T05:27:32.143Z,5
2022-10-04T05:28:33.252Z,5
2022-10-04T05:29:32.882Z,5
2022-10-04T05:30:31.833Z,10
2022-10-04T05:31:32.917Z,10
2022-10-04T05:32:32.838Z,10
2022-10-04T05:33:37.977Z,10
2022-10-04T05:34:32.827Z,10
2022-10-04T05:35:32.551Z,10
2022-10-04T05:36:32.772Z,10
2022-10-04T05:37:32.258Z,10
2022-10-04T05:38:32.495Z,10
2022-10-04T05:39:32.486Z,10
2022-10-04T05:40:32.215Z,10
2022-10-04T05:41:47.868Z,10
2022-10-04T05:42:31.924Z,10
2022-10-04T05:43:31.911Z,10
2022-10-04T05:44:32.684Z,10
2022-10-04T05:45:32.284Z,10
2022-10-04T05:46:31.887Z,15
2022-10-04T05:47:32.383Z,15
2022-10-04T05:48:32.115Z,15
2022-10-04T05:49:32.349Z,15
2022-10-04T05:50:32.086Z,15
2022-10-04T05:51:32.065Z,15
2022-10-04T05:52:32.053Z,15
2022-10-04T05:53:32.309Z,20
2022-10-04T05:54:32.287Z,20
2022-10-04T05:55:32.048Z,20
2022-10-04T05:56:32.266Z,20
2022-10-04T05:57:32.763Z,20
2022-10-04T05:58:32.269Z,20
2022-10-04T05:59:31.963Z,20
2022-10-04T06:00:31.698Z,25
2022-10-04T06:01:32.948Z,25
2022-10-04T06:02:32.639Z,25
2022-10-04T06:03:32.428Z,30
2022-10-04T06:04:31.678Z,30
2022-10-04T06:05:37.303Z,30
2022-10-04T06:06:31.887Z,30
2022-10-04T06:07:31.854Z,35
2022-10-04T06:08:31.594Z,35
2022-10-04T06:09:31.838Z,35
2022-10-04T06:10:31.929Z,40
2022-10-04T06:11:32.061Z,40
2022-10-04T06:12:32.310Z,40
2022-10-04T06:13:32.473Z,40
2022-10-04T06:14:32.045Z,40
2022-10-04T06:15:31.746Z,40
2022-10-04T06:16:31.807Z,40
2022-10-04T06:17:31.733Z,45
2022-10-04T06:18:31.970Z,45
2022-10-04T06:19:31.718Z,45
2022-10-04T06:20:31.503Z,50
2022-10-04T06:21:31.933Z,50
2022-10-04T06:22:32.185Z,50
2022-10-04T06:23:31.647Z,55
2022-10-04T06:24:36.101Z,55
2022-10-04T06:25:31.887Z,55
2022-10-04T06:26:32.133Z,60
2022-10-04T06:27:32.129Z,60
2022-10-04T06:28:32.034Z,60
2022-10-04T06:29:32.328Z,60
2022-10-04T06:30:31.937Z,60
2022-10-04T06:31:31.823Z,60
2022-10-04T06:32:31.537Z,65
2022-10-04T06:33:31.805Z,70
2022-10-04T06:34:32.039Z,70
2022-10-04T06:35:31.750Z,70
2022-10-04T06:36:31.232Z,70
2022-10-04T06:37:31.723Z,75
2022-10-04T06:38:31.718Z,80
2022-10-04T06:39:31.692Z,80
2022-10-04T06:40:30.917Z,85
2022-10-04T06:41:31.448Z,90
2022-10-04T06:42:31.926Z,90
2022-10-04T06:43:31.912Z,85
2022-10-04T06:44:31.928Z,85
2022-10-04T06:45:32.036Z,80
2022-10-04T06:46:32.165Z,80
2022-10-04T06:47:31.088Z,80
2022-10-04T06:48:31.584Z,80
2022-10-04T06:49:31.065Z,80
2022-10-04T06:50:31.562Z,80
2022-10-04T06:51:31.799Z,80
2022-10-04T06:52:31.534Z,80
2022-10-04T06:53:31.528Z,80
2022-10-04T06:54:30.740Z,80
2022-10-04T06:55:31.493Z,80
2022-10-04T06:56:31.761Z,80
2022-10-04T06:57:31.220Z,80
2022-10-04T06:58:31.207Z,80
2022-10-04T06:59:31.455Z,80
2022-10-04T07:00:31.538Z,85
2022-10-04T07:01:32.302Z,85
2022-10-04T07:02:31.377Z,85
2022-10-04T07:03:30.894Z,85
2022-10-04T07:04:41.286Z,90
2022-10-04T07:05:31.124Z,90
2022-10-04T07:06:31.370Z,95
2022-10-04T07:07:31.406Z,100
2022-10-04T07:08:30.825Z,105
2022-10-04T07:09:31.087Z,105
2022-10-04T07:10:30.902Z,110
2022-10-04T07:11:31.307Z,110
2022-10-04T07:12:31.037Z,110
2022-10-04T07:13:31.029Z,110
2022-10-04T07:14:31.550Z,110
2022-10-04T07:15:31.582Z,110
2022-10-04T07:16:31.634Z,110
2022-10-04T07:17:31.711Z,110
2022-10-04T07:18:31.217Z,115
2022-10-04T07:19:31.214Z,115
2022-10-04T07:20:30.755Z,120
2022-10-04T07:21:31.454Z,120
2022-10-04T07:22:31.430Z,120
2022-10-04T07:23:36.873Z,120
2022-10-04T07:24:31.151Z,120
2022-10-04T07:25:30.882Z,125
2022-10-04T07:26:31.144Z,130
2022-10-04T07:27:31.395Z,130
2022-10-04T07:28:31.417Z,135
2022-10-04T07:29:30.835Z,135
2022-10-04T07:30:30.829Z,135
2022-10-04T07:31:31.433Z,140
2022-10-04T07:32:30.805Z,140
2022-10-04T07:33:31.441Z,145
2022-10-04T07:34:30.532Z,145
2022-10-04T07:35:31.297Z,145
2022-10-04T07:36:31.165Z,145
2022-10-04T07:37:30.745Z,145
2022-10-04T07:38:31.246Z,150
2022-10-04T07:39:30.730Z,155
2022-10-04T07:40:30.718Z,160
2022-10-04T07:41:30.956Z,160
2022-10-04T07:42:30.690Z,160
2022-10-04T07:43:31.187Z,160
2022-10-04T07:44:31.173Z,160
2022-10-04T07:45:35.270Z,155
2022-10-04T07:46:30.874Z,155
2022-10-04T07:47:31.150Z,155
2022-10-04T07:48:31.138Z,155
2022-10-04T07:49:31.278Z,155
2022-10-04T07:50:30.683Z,155
2022-10-04T07:51:30.331Z,155
2022-10-04T07:52:30.323Z,155
2022-10-04T07:53:30.319Z,150
2022-10-04T07:54:30.555Z,145
2022-10-04T07:55:30.537Z,145
2022-10-04T07:56:30.796Z,150
2022-10-04T07:57:30.782Z,155
2022-10-04T07:58:30.518Z,160
2022-10-04T07:59:30.753Z,170
2022-10-04T08:00:30.591Z,175
2022-10-04T08:01:30.721Z,175
2022-10-04T08:02:36.586Z,175
2022-10-04T08:03:31.077Z,180
2022-10-04T08:04:31.189Z,185
2022-10-04T08:05:31.712Z,190
2022-10-04T08:06:31.177Z,190
2022-10-04T08:07:30.904Z,195
2022-10-04T08:08:30.899Z,180
2022-10-04T08:09:30.111Z,175
2022-10-04T08:10:31.144Z,180
2022-10-04T08:11:30.359Z,180
2022-10-04T08:12:30.847Z,180
2022-10-04T08:13:30.834Z,175
2022-10-04T08:14:30.829Z,170
2022-10-04T08:15:30.332Z,170
2022-10-04T08:16:31.029Z,170
2022-10-04T08:17:30.553Z,165
2022-10-04T08:18:30.791Z,160
2022-10-04T08:19:30.768Z,160
2022-10-04T08:20:30.520Z,155
2022-10-04T08:21:31.352Z,155
2022-10-04T08:22:29.984Z,155
2022-10-04T08:23:30.990Z,155
2022-10-04T08:24:30.468Z,155
2022-10-04T08:25:30.218Z,155
2022-10-04T08:26:30.509Z,160
2022-10-04T08:27:30.685Z,160
2022-10-04T08:28:30.814Z,160
2022-10-04T08:29:30.420Z,165
2022-10-04T08:30:30.404Z,170
2022-10-04T08:31:30.860Z,175
2022-10-04T08:32:30.672Z,175
2022-10-04T08:33:30.632Z,185
2022-10-04T08:34:30.632Z,185
2022-10-04T08:35:30.904Z,185
2022-10-04T08:36:30.606Z,190
2022-10-04T08:37:30.988Z,195
2022-10-04T08:38:30.362Z,195
2022-10-04T08:39:30.584Z,200
2022-10-04T08:40:31.100Z,205
2022-10-04T08:41:30.037Z,210
2022-10-04T08:42:30.550Z,215
2022-10-04T08:43:30.529Z,220
2022-10-04T08:44:30.784Z,230
2022-10-04T08:45:29.747Z,225
2022-10-04T08:46:30.670Z,225
2022-10-04T08:47:31.272Z,230
2022-10-04T08:48:30.517Z,225
2022-10-04T08:49:30.215Z,240
2022-10-04T08:50:30.215Z,250
2022-10-04T08:51:29.936Z,255
2022-10-04T08:52:30.204Z,260
2022-10-04T08:53:31.035Z,260
2022-10-04T08:54:30.165Z,260
2022-10-04T08:55:30.414Z,260
2022-10-04T08:56:30.404Z,260
2022-10-04T08:57:30.143Z,255
2022-10-04T08:58:30.394Z,255
2022-10-04T08:59:30.386Z,255
2022-10-04T09:00:30.368Z,245
2022-10-04T09:01:30.517Z,245
2022-10-04T09:02:30.206Z,240
2022-10-04T09:03:34.149Z,240
2022-10-04T09:04:30.110Z,240
2022-10-04T09:05:30.073Z,235
2022-10-04T09:06:29.547Z,235
2022-10-04T09:07:30.300Z,235
2022-10-04T09:08:30.614Z,235
2022-10-04T09:09:30.664Z,235
2022-10-04T09:10:34.152Z,240
2022-10-04T09:11:30.268Z,240
2022-10-04T09:12:29.744Z,240
2022-10-04T09:13:29.998Z,245
2022-10-04T09:14:29.993Z,250
2022-10-04T09:15:30.289Z,245
2022-10-04T09:16:30.175Z,250
2022-10-04T09:17:32.066Z,250
2022-10-04T09:18:29.701Z,250
2022-10-04T09:19:30.206Z,250
2022-10-04T09:20:47.617Z,250
2022-10-04T09:21:30.182Z,250
2022-10-04T09:22:30.430Z,255
2022-10-04T09:23:30.173Z,255
2022-10-04T09:24:29.898Z,260
2022-10-04T09:25:30.571Z,260
2022-10-04T09:26:29.623Z,265
2022-10-04T09:28:02.391Z,270
2022-10-04T09:28:31.050Z,275
2022-10-04T09:29:29.906Z,280
2022-10-04T09:30:30.111Z,275
2022-10-04T09:31:30.528Z,280
2022-10-04T09:32:29.832Z,285
2022-10-04T09:33:29.702Z,280
2022-10-04T09:34:32.721Z,280
2022-10-04T09:35:29.796Z,280
2022-10-04T09:36:30.301Z,280
2022-10-04T09:37:30.045Z,280
2022-10-04T09:38:30.281Z,275
2022-10-04T09:39:45.153Z,275
2022-10-04T09:40:30.007Z,275
2022-10-04T09:41:30.555Z,275
2022-10-04T09:42:29.739Z,275
2022-10-04T09:43:29.998Z,275
2022-10-04T09:44:29.724Z,280
2022-10-04T09:45:29.723Z,280
2022-10-04T09:46:30.243Z,285
2022-10-04T09:47:29.979Z,285
2022-10-04T09:48:30.205Z,285
2022-10-04T09:49:29.678Z,285
2022-10-04T09:50:29.681Z,285
2022-10-04T09:51:29.924Z,280
2022-10-04T09:52:29.926Z,280
2022-10-04T09:53:30.533Z,280
2022-10-04T09:54:30.517Z,280
2022-10-04T09:55:30.251Z,280
2022-10-04T09:56:30.249Z,280
2022-10-04T09:57:31.132Z,275
2022-10-04T09:58:30.233Z,275
2022-10-04T09:59:30.794Z,275
2022-10-04T10:00:30.254Z,270
2022-10-04T10:01:30.882Z,270
2022-10-04T10:02:30.728Z,265
2022-10-04T10:03:30.520Z,260
2022-10-04T10:04:30.198Z,255
2022-10-04T10:05:30.173Z,250
2022-10-04T10:06:29.907Z,245
2022-10-04T10:07:30.408Z,235
2022-10-04T10:08:35.684Z,225
2022-10-04T10:09:30.397Z,215
2022-10-04T10:10:30.646Z,205
2022-10-04T10:11:30.382Z,200
2022-10-04T10:12:29.866Z,185
2022-10-04T10:13:34.840Z,185
2022-10-04T10:14:30.361Z,185
2022-10-04T10:15:30.817Z,185
2022-10-04T10:16:31.342Z,180
2022-10-04T10:17:31.302Z,175
2022-10-04T10:18:30.783Z,175
2022-10-04T10:19:36.767Z,180
2022-10-04T10:20:31.033Z,180
2022-10-04T10:21:31.024Z,175
2022-10-04T10:22:30.749Z,175
2022-10-04T10:23:30.492Z,170
2022-10-04T10:24:31.258Z,170
2022-10-04T10:25:31.242Z,160
2022-10-04T10:26:30.985Z,155
2022-10-04T10:27:30.724Z,155
2022-10-04T10:28:31.559Z,150
2022-10-04T10:29:31.590Z,145
2022-10-04T10:30:30.701Z,135
2022-10-04T10:31:31.086Z,140
2022-10-04T10:32:30.948Z,135
2022-10-04T10:33:30.663Z,125
2022-10-04T10:34:31.177Z,125
2022-10-04T10:35:30.925Z,130
2022-10-04T10:36:30.909Z,130
2022-10-04T10:37:31.148Z,135
2022-10-04T10:38:30.624Z,145
2022-10-04T10:39:30.876Z,150
2022-10-04T10:40:30.368Z,155
2022-10-04T10:41:30.869Z,155
2022-10-04T10:42:30.629Z,160
2022-10-04T10:43:30.847Z,155
2022-10-04T10:44:30.838Z,160
2022-10-04T10:45:31.290Z,160
2022-10-04T10:46:30.983Z,150
2022-10-04T10:47:30.566Z,135
2022-10-04T10:48:30.292Z,120
2022-10-04T10:49:31.355Z,110
2022-10-04T10:50:30.804Z,100
2022-10-04T10:51:30.537Z,95
2022-10-04T10:52:30.530Z,95
2022-10-04T10:53:30.512Z,90
2022-10-04T10:54:30.908Z,90
2022-10-04T10:55:30.508Z,90
2022-10-04T10:56:35.946Z,90
2022-10-04T10:57:30.995Z,90
2022-10-04T10:58:30.471Z,85
2022-10-04T10:59:31.186Z,85
2022-10-04T11:00:31.435Z,85
2022-10-04T11:01:32.697Z,85
2022-10-04T11:03:23.841Z,85
2022-10-04T11:03:40.432Z,85
2022-10-04T11:04:33.676Z,85
2022-10-04T11:05:33.403Z,85
2022-10-04T11:06:33.143Z,85
2022-10-04T11:07:33.632Z,85
2022-10-04T11:08:33.627Z,85
2022-10-04T11:09:33.357Z,85
2022-10-04T11:10:33.360Z,85
2022-10-04T11:11:33.606Z,85
2022-10-04T11:12:33.335Z,85
2022-10-04T11:13:33.604Z,85
2022-10-04T11:14:33.583Z,85
2022-10-04T11:15:33.573Z,85
2022-10-04T11:16:34.108Z,85
2022-10-04T11:17:33.417Z,85
2022-10-04T11:18:33.553Z,85
2022-10-04T11:19:33.292Z,85
2022-10-04T11:20:33.568Z,85
2022-10-04T11:21:33.269Z,85
2022-10-04T11:22:38.655Z,85
2022-10-04T11:23:33.512Z,85
2022-10-04T11:24:33.248Z,85
2022-10-04T11:25:33.747Z,85
2022-10-04T11:26:33.235Z,85
2022-10-04T11:27:33.230Z,85
2022-10-04T11:28:33.783Z,85
2022-10-04T11:29:33.208Z,85
2022-10-04T11:30:32.954Z,80
2022-10-04T11:31:34.049Z,80
2022-10-04T11:32:33.786Z,80
2022-10-04T11:33:33.732Z,80
2022-10-04T11:34:33.179Z,80
2022-10-04T11:35:33.423Z,80
2022-10-04T11:36:32.893Z,80
2022-10-04T11:37:33.413Z,85
2022-10-04T11:38:33.138Z,85
2022-10-04T11:39:33.648Z,85
2022-10-04T11:40:33.135Z,85
2022-10-04T11:41:33.111Z,85
2022-10-04T11:42:33.116Z,85
2022-10-04T11:43:32.849Z,85
2022-10-04T11:44:33.347Z,85
2022-10-04T11:45:33.080Z,85
2022-10-04T11:46:34.037Z,85
2022-10-04T11:47:32.813Z,85
2022-10-04T11:48:33.369Z,85
2022-10-04T11:49:33.633Z,85
2022-10-04T11:50:33.049Z,85
2022-10-04T11:51:33.544Z,85
2022-10-04T11:52:33.023Z,85
2022-10-04T11:53:32.763Z,80
2022-10-04T11:54:33.017Z,80
2022-10-04T11:55:33.277Z,80
2022-10-04T11:56:33.250Z,80
2022-10-04T11:57:33.505Z,80
2022-10-04T11:58:32.981Z,80
2022-10-04T11:59:32.716Z,80
2022-10-04T12:00:33.493Z,80
2022-10-04T12:01:32.953Z,80
2022-10-04T12:02:32.707Z,80
2022-10-04T12:03:33.400Z,80
2022-10-04T12:04:33.653Z,80
2022-10-04T12:05:33.263Z,80
2022-10-04T12:06:32.913Z,80
2022-10-04T12:07:33.172Z,80
2022-10-04T12:08:32.392Z,80
2022-10-04T12:09:32.894Z,80
2022-10-04T12:10:32.626Z,80
2022-10-04T12:11:32.879Z,80
2022-10-04T12:12:32.870Z,80
2022-10-04T12:13:32.873Z,80
2022-10-04T12:14:32.599Z,80
2022-10-04T12:15:33.103Z,80
2022-10-04T12:16:33.447Z,80
2022-10-04T12:17:32.827Z,80
2022-10-04T12:18:33.370Z,80
2022-10-04T12:19:32.817Z,80
2022-10-04T12:20:33.139Z,80
2022-10-04T12:21:33.398Z,80
2022-10-04T12:22:32.527Z,80
2022-10-04T12:23:32.524Z,80
2022-10-04T12:24:33.292Z,80
2022-10-04T12:25:33.275Z,80
2022-10-04T12:26:32.755Z,80
2022-10-04T12:27:33.256Z,80
2022-10-04T12:28:33.572Z,80
2022-10-04T12:29:32.217Z,80
2022-10-04T12:30:32.975Z,80
2022-10-04T12:31:33.061Z,80
2022-10-04T12:32:32.195Z,80
2022-10-04T12:33:33.250Z,75
2022-10-04T12:34:32.960Z,75
2022-10-04T12:35:32.430Z,75
2022-10-04T12:36:32.871Z,75
2022-10-04T12:37:32.832Z,75
2022-10-04T12:38:32.910Z,75
2022-10-04T12:39:32.644Z,75
2022-10-04T12:40:32.638Z,75
2022-10-04T12:41:32.631Z,75
2022-10-04T12:42:37.319Z,75
2022-10-04T12:43:32.623Z,75
2022-10-04T12:44:32.615Z,75
2022-10-04T12:45:33.235Z,75
2022-10-04T12:46:32.595Z,75
2022-10-04T12:47:32.602Z,75
2022-10-04T12:48:32.323Z,75
2022-10-04T12:49:32.839Z,75
2022-10-04T12:50:32.558Z,75
2022-10-04T12:51:32.811Z,75
2022-10-04T12:52:33.126Z,75
2022-10-04T12:53:32.622Z,75
2022-10-04T12:54:32.786Z,75
2022-10-04T12:55:32.530Z,75
2022-10-04T12:56:32.524Z,75
2022-10-04T12:57:32.794Z,75
2022-10-04T12:58:32.267Z,75
2022-10-04T12:59:32.744Z,75
2022-10-04T13:00:32.479Z,75
2022-10-04T13:01:33.379Z,75
2022-10-04T13:02:33.218Z,75
2022-10-04T13:03:32.460Z,75
2022-10-04T13:04:32.602Z,75
2022-10-04T13:05:32.454Z,75
2022-10-04T13:06:32.700Z,75
2022-10-04T13:07:32.938Z,80
2022-10-04T13:08:32.983Z,75
2022-10-04T13:09:32.889Z,75
2022-10-04T13:10:34.758Z,75
2022-10-04T13:11:32.651Z,75
2022-10-04T13:12:32.391Z,75
2022-10-04T13:13:32.380Z,75
2022-10-04T13:14:32.641Z,75
2022-10-04T13:17:35.644Z,75
2022-10-04T13:17:45.444Z,75
2022-10-04T13:18:44.728Z,75
2022-10-04T13:19:44.988Z,70
2022-10-04T13:20:44.460Z,70
2022-10-04T13:21:45.839Z,70
2022-10-04T13:23:05.267Z,70
2022-10-04T13:23:45.537Z,70
2022-10-04T13:24:45.530Z,70
2022-10-04T13:25:45.187Z,70
2022-10-04T13:26:45.178Z,70
2022-10-04T13:27:44.914Z,70
2022-10-04T13:28:45.388Z,70
2022-10-04T13:29:44.646Z,70
2022-10-04T13:30:45.150Z,70
2022-10-04T13:31:45.728Z,70
2022-10-04T13:32:44.878Z,70
2022-10-04T13:33:44.870Z,70
2022-10-04T13:34:45.394Z,70
2022-10-04T13:35:45.843Z,70
2022-10-04T13:36:46.054Z,70
2022-10-04T13:37:45.804Z,70
2022-10-04T13:38:45.526Z,70
2022-10-04T13:39:46.091Z,70
2022-10-04T13:40:45.876Z,70
2022-10-04T13:41:46.907Z,70
2022-10-04T13:42:45.766Z,70
2022-10-04T13:43:45.753Z,70
2022-10-04T13:44:45.756Z,70
2022-10-04T13:45:45.283Z,70
2022-10-04T13:46:45.725Z,70
2022-10-04T13:47:45.740Z,70
2022-10-04T13:48:45.446Z,70
2022-10-04T13:49:45.704Z,70
2022-10-04T13:50:45.701Z,70
2022-10-04T13:51:46.856Z,70
2022-10-04T13:52:45.165Z,70
2022-10-04T13:53:45.412Z,70
2022-10-04T13:54:45.695Z,70
2022-10-04T13:55:45.804Z,70
2022-10-04T13:56:46.018Z,70
2022-10-04T13:57:45.631Z,70
2022-10-04T13:58:45.371Z,70
2022-10-04T13:59:45.367Z,70
2022-10-04T14:00:45.561Z,70
2022-10-04T14:01:46.054Z,70
2022-10-04T14:02:45.598Z,70
2022-10-04T14:03:45.773Z,70
2022-10-04T14:04:45.578Z,70
2022-10-04T14:05:45.570Z,70
2022-10-04T14:06:45.823Z,70
2022-10-04T14:07:45.815Z,70
2022-10-04T14:08:45.830Z,70
2022-10-04T14:09:45.559Z,70
2022-10-04T14:10:45.557Z,65
2022-10-04T14:11:46.383Z,65
2022-10-04T14:12:45.623Z,65
2022-10-04T14:13:45.262Z,65
2022-10-04T14:14:45.255Z,65
2022-10-04T14:15:45.245Z,65
2022-10-04T14:16:45.905Z,65
2022-10-04T14:17:45.740Z,65
2022-10-04T14:18:45.227Z,65
2022-10-04T14:19:45.473Z,65
2022-10-04T14:20:45.710Z,65
2022-10-04T14:21:46.229Z,65
2022-10-04T14:22:45.461Z,65
2022-10-04T14:23:45.696Z,65
2022-10-04T14:24:45.444Z,65
2022-10-04T14:25:45.163Z,65
2022-10-04T14:26:45.815Z,65
2022-10-04T14:27:45.457Z,65
2022-10-04T14:28:45.996Z,65
2022-10-04T14:29:44.880Z,65
2022-10-04T14:30:45.123Z,65
2022-10-04T14:31:47.535Z,65
2022-10-04T14:32:44.856Z,65
2022-10-04T14:33:44.851Z,65
2022-10-04T14:34:44.834Z,65
2022-10-04T14:35:44.849Z,65